PROFILE

 METAR AND TAF INFORMATION
ADDS - METARS form results

(0544 UTC 22 September 2019)
http://aviationweather.gov/metar/data/
 
EGJJ 220520Z 07006KT 040V130 9999 -RA SCT012 SCT025 BKN040 16/14 Q1002 RERA
EGJJ 220450Z 26011KT 7000 RA FEW003 BKN015 13/11 Q1003
TAF AMD EGJJ 220534Z 2206/2215 18013KT 8000 -RA SCT010 BKN018 TEMPO 2206/2208 29010KT 3000 +RA BKN010 PROB30 TEMPO 2206/2207 25015G25KT TSRA BKN005 BKN020CB BECMG 2209/2210 9999 NSW SCT015 BECMG 2214/2215 21015KT 

 AIRPORT MAP

 RUNWAY INFORMATION
Runway 09 Runway length 5597 ft Runway width 151 ft
Runway elevation 270 ft Runway displaced threshold 200 ft Runway heading 83
Runway 27 Runway length 5597 ft Runway width 151 ft
Runway elevation 271 ft Runway displaced threshold 299 ft Runway heading 263

 AIRPORT FREQUENCIES
Type APP Name APP Frequency 120.3 MHZ
Type ATIS Name INFO Frequency 112.2 MHZ
Type GND Name GND Frequency 121.9 MHZ
Type RDR Name RDR Frequency 118.55 MHZ
Type TWR Name TWR Frequency 119.45 MHZ

 AIRPORT NEAR NAVIGATION AIDS
Type VOR-DME Name Jersey Frequency 112200 KHZ